Time;durP1;ratioP1;P1;durP2;ratioP2;P2;SDS_P1;SDS_P2;PMS_P1;PMS_P2;Temp;Humidity;BMP_temperature;BMP_pressure;BME280_temperature;BME280_humidity;BME280_pressure;Samples;Min_cycle;Max_cycle;Signal;HPM_P1;HPM_P2
2022/05/31 00:02:00;;;;;;;4.38;3.88;;;;;;;;;;5047982;28;20059;-88
2022/05/31 00:04:28;;;;;;;5.65;3.65;;;;;;;;;;5036463;28;20545;-88
2022/05/31 00:06:55;;;;;;;4.47;4.00;;;;;;;;;;5035754;28;20144;-85
2022/05/31 00:09:22;;;;;;;6.45;3.42;;;;;;;;;;5035799;28;20048;-88
2022/05/31 00:11:49;;;;;;;3.47;3.17;;;;;;;;;;5036278;28;20136;-88
2022/05/31 00:14:17;;;;;;;4.50;4.10;;;;;;;;;;5053644;28;20079;-88
2022/05/31 00:16:45;;;;;;;5.43;4.03;;;;;;;;;;5036289;28;20494;-88
2022/05/31 00:19:14;;;;;;;7.13;4.28;;;;;;;;;;5036312;28;20053;-88
2022/05/31 00:21:43;;;;;;;5.55;4.68;;;;;;;;;;5036337;28;20155;-88
2022/05/31 00:24:13;;;;;;;6.93;4.35;;;;;;;;;;5053372;28;20053;-88
2022/05/31 00:26:40;;;;;;;4.80;4.38;;;;;;;;;;5036157;28;20454;-85
2022/05/31 00:29:08;;;;;;;6.90;4.63;;;;;;;;;;5035964;28;20445;-88
2022/05/31 00:31:43;;;;;;;4.70;4.30;;;;;;;;;;5037178;28;20045;-87
2022/05/31 00:34:11;;;;;;;5.47;4.63;;;;;;;;;;5036095;28;20416;-88
2022/05/31 00:36:39;;;;;;;4.13;3.83;;;;;;;;;;5035974;28;20183;-88
2022/05/31 00:39:06;;;;;;;4.78;4.35;;;;;;;;;;5053464;28;20446;-87
2022/05/31 00:41:34;;;;;;;6.47;4.30;;;;;;;;;;5035941;28;20102;-85
2022/05/31 00:44:06;;;;;;;4.38;3.97;;;;;;;;;;5053433;28;20390;-88
2022/05/31 00:46:54;;;;;;;4.82;4.03;;;;;;;;;;5053422;28;20063;-88
2022/05/31 00:49:31;;;;;;;4.38;3.97;;;;;;;;;;5035706;28;20136;-88
2022/05/31 00:52:00;;;;;;;6.13;4.15;;;;;;;;;;5035595;28;20045;-88
2022/05/31 00:54:29;;;;;;;4.38;3.70;;;;;;;;;;5053351;28;20052;-87
2022/05/31 00:56:57;;;;;;;4.75;4.05;;;;;;;;;;5035603;28;20041;-88
2022/05/31 00:59:27;;;;;;;5.65;3.67;;;;;;;;;;5035080;28;20424;-88
2022/05/31 01:01:56;;;;;;;4.68;3.80;;;;;;;;;;5035625;28;20045;-87
2022/05/31 01:04:30;;;;;;;4.88;3.80;;;;;;;;;;5035520;28;20497;-88
2022/05/31 01:06:58;;;;;;;4.05;3.67;;;;;;;;;;5035506;28;20045;-88
2022/05/31 01:09:27;;;;;;;5.30;3.90;;;;;;;;;;5053145;28;20148;-87
2022/05/31 01:11:55;;;;;;;6.55;4.00;;;;;;;;;;5052961;28;20088;-87
2022/05/31 01:14:22;;;;;;;5.68;3.97;;;;;;;;;;5035942;28;20717;-88
2022/05/31 01:16:57;;;;;;;5.63;4.32;;;;;;;;;;5052922;28;20053;-88
2022/05/31 01:22:11;;;;;;;4.85;3.92;;;;;;;;;;5056948;28;20059;-88
2022/05/31 01:24:45;;;;;;;8.65;4.72;;;;;;;;;;5039294;28;20059;-88
2022/05/31 01:27:16;;;;;;;10.75;4.68;;;;;;;;;;5039370;28;20049;-87
2022/05/31 01:29:44;;;;;;;6.57;5.00;;;;;;;;;;5056893;28;20135;-87
2022/05/31 01:32:11;;;;;;;5.50;4.10;;;;;;;;;;5056836;28;20071;-86
2022/05/31 01:34:47;;;;;;;5.03;4.20;;;;;;;;;;5039264;28;20059;-86
2022/05/31 01:37:14;;;;;;;9.95;4.63;;;;;;;;;;5039504;28;20055;-86
2022/05/31 01:39:41;;;;;;;5.85;3.60;;;;;;;;;;5056849;28;20052;-85
2022/05/31 01:42:20;;;;;;;5.63;3.58;;;;;;;;;;5039163;28;20045;-86
2022/05/31 01:44:53;;;;;;;7.20;3.67;;;;;;;;;;5056463;28;20053;-86
2022/05/31 01:47:21;;;;;;;7.03;3.90;;;;;;;;;;5038851;28;20084;-86
2022/05/31 01:49:50;;;;;;;4.78;4.20;;;;;;;;;;5039112;28;20075;-87
2022/05/31 01:52:17;;;;;;;4.18;3.88;;;;;;;;;;5038900;28;20099;-85
2022/05/31 01:54:45;;;;;;;5.95;4.28;;;;;;;;;;5038730;28;20053;-85
2022/05/31 01:57:13;;;;;;;8.60;4.97;;;;;;;;;;5056285;28;20045;-86
2022/05/31 01:59:45;;;;;;;7.85;5.28;;;;;;;;;;5038546;28;20053;-87
2022/05/31 02:02:15;;;;;;;5.50;4.70;;;;;;;;;;5056398;28;20095;-86
2022/05/31 02:04:42;;;;;;;5.05;4.38;;;;;;;;;;5038318;28;20064;-86
2022/05/31 02:07:11;;;;;;;5.53;4.60;;;;;;;;;;5038217;28;20048;-86
2022/05/31 02:09:39;;;;;;;8.43;4.10;;;;;;;;;;5038212;28;20051;-86
2022/05/31 02:12:08;;;;;;;6.00;4.68;;;;;;;;;;5055604;28;20084;-86
2022/05/31 02:14:35;;;;;;;7.15;4.72;;;;;;;;;;5038318;28;20052;-86
2022/05/31 02:17:02;;;;;;;4.88;4.47;;;;;;;;;;5038290;28;20614;-86
2022/05/31 02:19:29;;;;;;;6.53;4.28;;;;;;;;;;5056016;28;20073;-86
2022/05/31 02:21:58;;;;;;;5.05;4.00;;;;;;;;;;5038361;28;20091;-86
2022/05/31 02:24:26;;;;;;;6.05;4.20;;;;;;;;;;5038230;28;20077;-86
2022/05/31 02:26:54;;;;;;;6.70;4.15;;;;;;;;;;5055932;28;20064;-86
2022/05/31 02:29:23;;;;;;;7.00;4.43;;;;;;;;;;5038424;28;20133;-86
2022/05/31 02:31:50;;;;;;;4.97;4.18;;;;;;;;;;5046638;28;20046;-86
2022/05/31 02:34:19;;;;;;;5.93;3.80;;;;;;;;;;5053042;28;20068;-86
2022/05/31 02:36:47;;;;;;;6.22;4.15;;;;;;;;;;5038825;28;20088;-86
2022/05/31 02:39:14;;;;;;;3.97;3.53;;;;;;;;;;5055354;28;20504;-86
2022/05/31 02:41:41;;;;;;;4.55;3.90;;;;;;;;;;5055633;28;20136;-86
2022/05/31 02:44:09;;;;;;;4.32;3.92;;;;;;;;;;5055297;28;20499;-86
2022/05/31 02:46:36;;;;;;;5.10;3.92;;;;;;;;;;5055510;28;20466;-86
2022/05/31 02:49:04;;;;;;;5.10;4.20;;;;;;;;;;5037896;28;20493;-86
2022/05/31 02:51:36;;;;;;;5.35;4.07;;;;;;;;;;5037774;28;20132;-86
2022/05/31 02:54:04;;;;;;;8.45;4.75;;;;;;;;;;5055072;28;20083;-86
2022/05/31 02:56:31;;;;;;;4.70;4.22;;;;;;;;;;5054999;28;20507;-86
2022/05/31 02:58:58;;;;;;;4.47;4.07;;;;;;;;;;5037503;28;20113;-86
2022/05/31 03:01:30;;;;;;;6.30;4.63;;;;;;;;;;5055151;28;20055;-86
2022/05/31 03:03:57;;;;;;;6.38;4.60;;;;;;;;;;5037472;28;20132;-86
2022/05/31 03:06:24;;;;;;;4.60;4.20;;;;;;;;;;5037333;28;20072;-86
2022/05/31 03:08:52;;;;;;;5.70;4.38;;;;;;;;;;5055082;28;20497;-86
2022/05/31 03:11:28;;;;;;;4.68;4.28;;;;;;;;;;5054813;28;20044;-86
2022/05/31 03:14:10;;;;;;;5.20;4.70;;;;;;;;;;5054739;28;20055;-86
2022/05/31 03:16:41;;;;;;;6.00;4.80;;;;;;;;;;5037274;28;20091;-85
2022/05/31 03:19:10;;;;;;;6.07;5.07;;;;;;;;;;5037382;28;20053;-86
2022/05/31 03:21:39;;;;;;;5.60;5.00;;;;;;;;;;5054877;28;20091;-86
2022/05/31 03:24:10;;;;;;;5.03;4.63;;;;;;;;;;5054480;28;20132;-86
2022/05/31 03:26:38;;;;;;;5.50;4.40;;;;;;;;;;5037198;28;20458;-86
2022/05/31 03:29:05;;;;;;;4.43;4.03;;;;;;;;;;5054573;28;20113;-86
2022/05/31 03:31:32;;;;;;;5.55;4.28;;;;;;;;;;5036844;28;20048;-85
2022/05/31 03:34:00;;;;;;;4.28;3.88;;;;;;;;;;5054350;28;20080;-86
2022/05/31 03:36:27;;;;;;;7.70;4.43;;;;;;;;;;5036868;28;20128;-85
2022/05/31 03:38:54;;;;;;;7.47;4.43;;;;;;;;;;5054479;28;20549;-86
2022/05/31 03:41:21;;;;;;;6.57;4.45;;;;;;;;;;5036901;28;20095;-86
2022/05/31 03:43:48;;;;;;;10.50;5.20;;;;;;;;;;5037039;28;20136;-86
2022/05/31 03:46:16;;;;;;;5.57;4.82;;;;;;;;;;5036817;28;20478;-86
2022/05/31 03:48:43;;;;;;;5.22;4.60;;;;;;;;;;5065152;28;20029;-85
2022/05/31 03:51:11;;;;;;;5.90;5.20;;;;;;;;;;5064257;28;20049;-86
2022/05/31 03:53:39;;;;;;;6.03;5.43;;;;;;;;;;5037231;28;20045;-86
2022/05/31 03:56:07;;;;;;;8.23;5.40;;;;;;;;;;5036471;28;20398;-85
2022/05/31 03:58:35;;;;;;;8.30;5.32;;;;;;;;;;5053909;28;20088;-86
2022/05/31 04:01:02;;;;;;;8.18;5.57;;;;;;;;;;5036575;28;20052;-86
2022/05/31 04:03:30;;;;;;;11.05;5.63;;;;;;;;;;5036795;28;20139;-86
2022/05/31 04:06:03;;;;;;;11.45;7.53;;;;;;;;;;5053979;28;20143;-86
2022/05/31 04:08:31;;;;;;;7.85;6.57;;;;;;;;;;5035964;28;20401;-86
2022/05/31 04:10:58;;;;;;;9.75;6.00;;;;;;;;;;5035941;28;20406;-86
2022/05/31 04:13:25;;;;;;;9.77;5.95;;;;;;;;;;5036459;28;20128;-86
2022/05/31 04:16:10;;;;;;;12.95;7.30;;;;;;;;;;5036110;28;20124;-86
2022/05/31 04:18:37;;;;;;;9.98;6.70;;;;;;;;;;5053725;28;20075;-86
2022/05/31 04:21:07;;;;;;;8.25;6.47;;;;;;;;;;5036149;28;20148;-86
2022/05/31 04:26:20;;;;;;;12.45;8.50;;;;;;;;;;5053609;28;20083;-86
2022/05/31 04:28:48;;;;;;;18.52;11.07;;;;;;;;;;5036119;28;20053;-86
2022/05/31 04:31:15;;;;;;;20.83;12.48;;;;;;;;;;5035807;28;20051;-86
2022/05/31 04:33:42;;;;;;;20.40;12.73;;;;;;;;;;5053581;28;20052;-86
2022/05/31 04:36:11;;;;;;;15.50;11.48;;;;;;;;;;5035725;28;20045;-87
2022/05/31 04:38:39;;;;;;;20.10;11.93;;;;;;;;;;5036000;28;20059;-86
2022/05/31 04:41:07;;;;;;;18.65;10.77;;;;;;;;;;5036122;28;20041;-87
2022/05/31 04:43:34;;;;;;;17.38;10.05;;;;;;;;;;5036057;28;20099;-86
2022/05/31 04:46:09;;;;;;;11.18;8.00;;;;;;;;;;5035611;28;20409;-87
2022/05/31 04:48:37;;;;;;;9.73;8.52;;;;;;;;;;5035801;28;20124;-87
2022/05/31 04:51:04;;;;;;;9.25;6.88;;;;;;;;;;5053402;28;20084;-87
2022/05/31 04:53:32;;;;;;;10.00;6.45;;;;;;;;;;5035294;28;20127;-87
2022/05/31 04:56:03;;;;;;;7.50;5.45;;;;;;;;;;5052882;28;20091;-86
2022/05/31 04:58:31;;;;;;;9.30;5.82;;;;;;;;;;5053112;28;20057;-85
2022/05/31 05:01:02;;;;;;;12.65;8.77;;;;;;;;;;5052970;28;20490;-86
2022/05/31 05:03:29;;;;;;;13.07;8.85;;;;;;;;;;5053132;28;20049;-87
2022/05/31 05:06:00;;;;;;;12.93;7.30;;;;;;;;;;5053419;28;20060;-87
2022/05/31 05:08:27;;;;;;;9.00;6.32;;;;;;;;;;5037879;28;20051;-87
2022/05/31 05:10:55;;;;;;;8.30;6.25;;;;;;;;;;5035422;28;20045;-87
2022/05/31 05:13:22;;;;;;;10.27;7.15;;;;;;;;;;5035373;28;20072;-87
2022/05/31 05:15:51;;;;;;;17.60;7.40;;;;;;;;;;5052767;28;20045;-87
2022/05/31 05:18:18;;;;;;;13.65;4.75;;;;;;;;;;5035393;28;20072;-87
2022/05/31 05:20:46;;;;;;;6.57;3.03;;;;;;;;;;5053061;28;20143;-87
2022/05/31 05:23:13;;;;;;;9.93;3.38;;;;;;;;;;5035319;28;20048;-88
2022/05/31 05:25:41;;;;;;;6.97;2.95;;;;;;;;;;5035518;28;20573;-87
2022/05/31 05:30:53;;;;;;;11.40;3.72;;;;;;;;;;5053188;28;20515;-87
2022/05/31 05:33:21;;;;;;;18.15;3.88;;;;;;;;;;5035237;28;20053;-87
2022/05/31 05:35:48;;;;;;;5.30;2.45;;;;;;;;;;5035099;28;20081;-87
2022/05/31 05:38:15;;;;;;;1.80;1.67;;;;;;;;;;5052667;28;20140;-88
2022/05/31 05:40:42;;;;;;;1.50;1.40;;;;;;;;;;5035148;28;20080;-88
2022/05/31 05:43:10;;;;;;;3.55;1.77;;;;;;;;;;5052866;28;20490;-88
2022/05/31 05:45:37;;;;;;;10.93;3.05;;;;;;;;;;5035159;28;20045;-87
2022/05/31 05:48:05;;;;;;;7.20;2.40;;;;;;;;;;5035163;28;20382;-87
2022/05/31 05:50:36;;;;;;;3.42;1.48;;;;;;;;;;5035364;28;20103;-88
2022/05/31 05:53:05;;;;;;;3.70;1.33;;;;;;;;;;5035115;28;20116;-88
2022/05/31 05:55:34;;;;;;;1.67;1.58;;;;;;;;;;5035374;28;20114;-88
2022/05/31 05:58:03;;;;;;;3.60;2.40;;;;;;;;;;5052479;28;20084;-88
2022/05/31 06:00:31;;;;;;;1.67;1.58;;;;;;;;;;5035366;28;20044;-87
2022/05/31 06:03:02;;;;;;;9.15;3.10;;;;;;;;;;5034997;28;20501;-88
2022/05/31 06:05:30;;;;;;;1.70;1.60;;;;;;;;;;5035745;28;20140;-88
2022/05/31 06:08:04;;;;;;;1.52;1.42;;;;;;;;;;5056300;28;20053;-87
2022/05/31 06:10:45;;;;;;;4.07;1.52;;;;;;;;;;5039131;28;20048;-88
2022/05/31 06:13:16;;;;;;;1.15;1.15;;;;;;;;;;5038525;28;20107;-87
2022/05/31 06:15:45;;;;;;;2.97;1.52;;;;;;;;;;5056072;28;20052;-88
2022/05/31 06:18:14;;;;;;;4.25;1.45;;;;;;;;;;5038276;28;20060;-88
2022/05/31 06:20:45;;;;;;;8.05;2.13;;;;;;;;;;5056096;28;20131;-88
2022/05/31 06:23:13;;;;;;;3.75;1.67;;;;;;;;;;5057308;28;20551;-88
2022/05/31 06:25:40;;;;;;;10.15;3.30;;;;;;;;;;5063330;28;20073;-89
2022/05/31 06:28:07;;;;;;;10.63;2.70;;;;;;;;;;5038374;28;20044;-88
2022/05/31 06:30:34;;;;;;;3.53;2.22;;;;;;;;;;5038338;28;20048;-88
2022/05/31 06:33:01;;;;;;;18.67;3.83;;;;;;;;;;5055837;28;20084;-89
2022/05/31 06:35:28;;;;;;;22.88;4.60;;;;;;;;;;5038163;28;20132;-89
2022/05/31 06:37:56;;;;;;;24.23;5.07;;;;;;;;;;5038157;28;20049;-89
2022/05/31 06:40:23;;;;;;;21.65;6.53;;;;;;;;;;5038053;28;20155;-88
2022/05/31 06:42:50;;;;;;;16.50;5.47;;;;;;;;;;5038175;28;20132;-89
2022/05/31 06:45:17;;;;;;;23.95;6.38;;;;;;;;;;5037841;28;20124;-90
2022/05/31 06:47:45;;;;;;;9.63;2.85;;;;;;;;;;5038205;28;20049;-90
2022/05/31 06:50:12;;;;;;;12.88;2.95;;;;;;;;;;5055567;28;20089;-89
2022/05/31 06:58:11;;;;;;;3.00;1.48;;;;;;;;;;5053719;28;20060;-88
2022/05/31 07:00:38;;;;;;;8.93;2.20;;;;;;;;;;5055302;28;20143;-89
2022/05/31 07:03:11;;;;;;;2.87;1.83;;;;;;;;;;5038429;28;20452;-86
2022/05/31 07:05:39;;;;;;;4.70;1.42;;;;;;;;;;5055222;28;20291;-88
2022/05/31 07:08:10;;;;;;;4.85;1.20;;;;;;;;;;5038023;28;20045;-86
2022/05/31 07:10:37;;;;;;;6.97;1.65;;;;;;;;;;5037580;28;20139;-87
2022/05/31 07:13:04;;;;;;;3.15;1.60;;;;;;;;;;5037559;28;20412;-86
2022/05/31 07:15:31;;;;;;;8.85;1.55;;;;;;;;;;5037325;28;20059;-87
2022/05/31 07:18:19;;;;;;;4.95;1.40;;;;;;;;;;5039908;28;20436;-86
2022/05/31 07:20:46;;;;;;;4.32;1.38;;;;;;;;;;5037795;28;20076;-86
2022/05/31 07:23:14;;;;;;;10.75;1.48;;;;;;;;;;5037299;28;20509;-85
2022/05/31 07:25:41;;;;;;;4.32;1.23;;;;;;;;;;5037244;28;20045;-87
2022/05/31 07:28:08;;;;;;;4.35;1.50;;;;;;;;;;5037081;28;20084;-88
2022/05/31 07:30:35;;;;;;;5.90;1.50;;;;;;;;;;5054640;28;20084;-87
2022/05/31 07:33:03;;;;;;;6.55;1.00;;;;;;;;;;5037302;28;20048;-87
2022/05/31 07:35:50;;;;;;;2.47;1.15;;;;;;;;;;5039864;28;20519;-86
2022/05/31 07:38:20;;;;;;;4.43;1.27;;;;;;;;;;5044294;28;20061;-87
2022/05/31 07:40:47;;;;;;;1.83;1.02;;;;;;;;;;5057796;28;20127;-86
2022/05/31 07:43:14;;;;;;;1.00;0.80;;;;;;;;;;5057205;28;20136;-83
2022/05/31 07:45:42;;;;;;;4.53;0.90;;;;;;;;;;5054154;28;20053;-87
2022/05/31 07:48:10;;;;;;;4.88;1.10;;;;;;;;;;5036943;28;20476;-86
2022/05/31 07:50:38;;;;;;;3.90;1.00;;;;;;;;;;5036940;28;20132;-87
2022/05/31 07:53:05;;;;;;;1.55;0.88;;;;;;;;;;5036655;28;20045;-88
2022/05/31 07:55:33;;;;;;;3.08;0.90;;;;;;;;;;5036689;28;20051;-89
2022/05/31 08:00:46;;;;;;;2.38;0.68;;;;;;;;;;5054061;28;20073;-88
2022/05/31 08:03:13;;;;;;;1.42;0.70;;;;;;;;;;5054134;28;20076;-87
2022/05/31 08:05:40;;;;;;;1.55;1.00;;;;;;;;;;5036475;28;20055;-88
2022/05/31 08:08:09;;;;;;;0.63;0.60;;;;;;;;;;5036092;28;20497;-85
2022/05/31 08:10:57;;;;;;;2.40;0.93;;;;;;;;;;5039440;28;20490;-87
2022/05/31 08:13:24;;;;;;;2.80;0.77;;;;;;;;;;5053655;28;20091;-83
2022/05/31 08:15:51;;;;;;;0.82;0.60;;;;;;;;;;5036389;28;20136;-87
2022/05/31 08:18:18;;;;;;;0.90;0.68;;;;;;;;;;5036136;28;20505;-87
2022/05/31 08:20:45;;;;;;;2.80;1.10;;;;;;;;;;5053771;28;20048;-86
2022/05/31 08:23:12;;;;;;;6.97;1.15;;;;;;;;;;5036150;28;20157;-87
2022/05/31 08:25:40;;;;;;;3.42;0.85;;;;;;;;;;5036031;28;20135;-86
2022/05/31 08:28:07;;;;;;;2.58;1.02;;;;;;;;;;5052728;28;20171;-85
2022/05/31 08:30:34;;;;;;;4.18;1.10;;;;;;;;;;5036002;28;20083;-85
2022/05/31 08:33:01;;;;;;;4.13;1.10;;;;;;;;;;5053228;28;20559;-85
2022/05/31 08:35:28;;;;;;;4.38;1.15;;;;;;;;;;5053296;28;20048;-86
2022/05/31 08:38:16;;;;;;;4.20;1.17;;;;;;;;;;5053153;28;20056;-83
2022/05/31 08:41:01;;;;;;;3.58;1.00;;;;;;;;;;5053582;28;20136;-87
2022/05/31 08:43:42;;;;;;;2.05;1.10;;;;;;;;;;5036818;28;20051;-84
2022/05/31 08:46:12;;;;;;;0.80;0.75;;;;;;;;;;5035371;28;20051;-87
2022/05/31 08:48:57;;;;;;;1.10;0.85;;;;;;;;;;5035925;28;20119;-87
2022/05/31 08:51:52;;;;;;;3.53;1.03;;;;;;;;;;5035859;28;20071;-86
2022/05/31 08:57:31;;;;;;;4.00;1.40;;;;;;;;;;5066386;28;20139;-86
2022/05/31 09:00:00;;;;;;;2.22;0.90;;;;;;;;;;5035671;28;20497;-86
2022/05/31 09:02:37;;;;;;;1.00;0.70;;;;;;;;;;5035678;28;20115;-85
2022/05/31 09:05:24;;;;;;;1.15;1.05;;;;;;;;;;5052682;28;20049;-86
2022/05/31 09:07:54;;;;;;;1.45;0.98;;;;;;;;;;5035478;28;20081;-85
2022/05/31 09:10:32;;;;;;;2.75;1.00;;;;;;;;;;5035648;28;20083;-85
2022/05/31 09:13:04;;;;;;;4.00;1.20;;;;;;;;;;5053046;28;20080;-87
2022/05/31 09:15:38;;;;;;;3.38;1.10;;;;;;;;;;5035153;28;20556;-86
2022/05/31 09:18:08;;;;;;;2.35;0.88;;;;;;;;;;5052534;28;20056;-85
2022/05/31 09:20:41;;;;;;;3.92;1.00;;;;;;;;;;5035276;28;20091;-85
2022/05/31 09:23:09;;;;;;;4.80;1.17;;;;;;;;;;5053201;28;20049;-86
2022/05/31 09:25:41;;;;;;;3.25;0.98;;;;;;;;;;5035047;28;20091;-85
2022/05/31 09:28:27;;;;;;;5.70;0.90;;;;;;;;;;5035090;28;20115;-86
2022/05/31 09:30:57;;;;;;;1.52;1.38;;;;;;;;;;5035023;28;20081;-85
2022/05/31 09:33:27;;;;;;;2.60;1.15;;;;;;;;;;5035285;28;20053;-87
2022/05/31 09:36:13;;;;;;;3.65;1.20;;;;;;;;;;5034886;28;20087;-84
2022/05/31 09:38:59;;;;;;;2.22;1.08;;;;;;;;;;5035077;28;20504;-86
2022/05/31 09:41:33;;;;;;;1.42;1.20;;;;;;;;;;5038971;28;20059;-85
2022/05/31 09:44:06;;;;;;;2.53;1.35;;;;;;;;;;5039022;28;20459;-85
2022/05/31 09:46:37;;;;;;;3.53;1.27;;;;;;;;;;5039035;28;20132;-85
2022/05/31 09:49:23;;;;;;;3.72;1.33;;;;;;;;;;5056472;28;20057;-85
2022/05/31 09:51:50;;;;;;;5.95;1.50;;;;;;;;;;5038694;28;20049;-85
2022/05/31 09:57:24;;;;;;;6.15;1.30;;;;;;;;;;5056441;28;20099;-86
2022/05/31 09:59:52;;;;;;;5.07;1.40;;;;;;;;;;5038749;28;20140;-85
2022/05/31 10:02:25;;;;;;;6.82;1.17;;;;;;;;;;5038733;28;20063;-86
2022/05/31 10:05:25;;;;;;;8.00;1.40;;;;;;;;;;5039207;28;20163;-85
2022/05/31 10:07:53;;;;;;;1.10;1.10;;;;;;;;;;5002399;28;20080;-84
2022/05/31 10:10:35;;;;;;;2.63;1.15;;;;;;;;;;5057344;28;20137;-84
2022/05/31 10:13:04;;;;;;;3.40;1.00;;;;;;;;;;5076321;28;20072;-85
2022/05/31 10:15:51;;;;;;;3.33;1.00;;;;;;;;;;5042608;28;20135;-84
2022/05/31 10:18:27;;;;;;;3.03;1.17;;;;;;;;;;5038487;28;20049;-86
2022/05/31 10:21:02;;;;;;;1.10;1.00;;;;;;;;;;5038393;28;20108;-85
2022/05/31 10:23:35;;;;;;;1.73;1.05;;;;;;;;;;5038259;28;20103;-86
2022/05/31 10:26:02;;;;;;;2.97;1.10;;;;;;;;;;5055625;28;20044;-86
2022/05/31 10:28:31;;;;;;;5.20;1.27;;;;;;;;;;5038357;28;20588;-85
2022/05/31 10:31:17;;;;;;;1.20;0.85;;;;;;;;;;5055550;28;20079;-86
2022/05/31 10:33:55;;;;;;;2.20;0.80;;;;;;;;;;5055799;28;20469;-85
2022/05/31 10:36:24;;;;;;;2.13;0.82;;;;;;;;;;5038159;28;20120;-85
2022/05/31 10:38:52;;;;;;;1.83;0.85;;;;;;;;;;5038334;28;20131;-86
2022/05/31 10:41:19;;;;;;;2.20;1.05;;;;;;;;;;5055370;28;20099;-85
2022/05/31 10:44:05;;;;;;;3.70;1.55;;;;;;;;;;5055969;28;20053;-86
2022/05/31 10:46:36;;;;;;;2.40;0.80;;;;;;;;;;5037630;28;20504;-84
2022/05/31 10:49:10;;;;;;;1.70;0.68;;;;;;;;;;5038130;28;20384;-86
2022/05/31 10:51:50;;;;;;;0.98;0.70;;;;;;;;;;5037845;28;20576;-87
2022/05/31 10:54:27;;;;;;;2.40;0.98;;;;;;;;;;5037607;28;20106;-84
2022/05/31 10:57:09;;;;;;;1.67;0.85;;;;;;;;;;5037971;28;20044;-86
2022/05/31 10:59:41;;;;;;;3.90;0.90;;;;;;;;;;5037370;28;20063;-84
2022/05/31 11:02:19;;;;;;;1.38;0.80;;;;;;;;;;5037484;28;20395;-85
2022/05/31 11:05:08;;;;;;;1.13;0.80;;;;;;;;;;5037494;28;20048;-86
2022/05/31 11:13:55;;;;;;;1.88;0.60;;;;;;;;;;5054808;28;20135;-85
2022/05/31 11:16:25;;;;;;;3.97;0.60;;;;;;;;;;5038313;28;20055;-87
2022/05/31 11:19:14;;;;;;;1.58;0.52;;;;;;;;;;5038346;28;20147;-86
2022/05/31 11:21:44;;;;;;;1.90;0.70;;;;;;;;;;5038121;28;20136;-86
2022/05/31 11:24:18;;;;;;;1.83;0.60;;;;;;;;;;5037543;28;20132;-86
2022/05/31 11:26:45;;;;;;;;;;;;;;;;;;5040221;28;20080;-86
2022/05/31 11:29:38;;;;;;;1.80;0.80;;;;;;;;;;5073600;28;19931;-86
2022/05/31 11:32:20;;;;;;;1.38;0.55;;;;;;;;;;5057425;28;20055;-86
2022/05/31 11:34:59;;;;;;;3.22;0.70;;;;;;;;;;5037120;28;20098;-86
2022/05/31 11:37:45;;;;;;;1.23;0.65;;;;;;;;;;5036983;28;20051;-85
2022/05/31 11:40:23;;;;;;;7.70;1.38;;;;;;;;;;5036826;28;20053;-86
2022/05/31 11:43:08;;;;;;;1.58;0.70;;;;;;;;;;5036824;28;20051;-85
2022/05/31 11:45:58;;;;;;;0.60;0.60;;;;;;;;;;5037473;28;20102;-85
2022/05/31 11:48:45;;;;;;;0.63;0.60;;;;;;;;;;5041205;28;20052;-86
2022/05/31 11:51:31;;;;;;;2.08;0.63;;;;;;;;;;5036938;28;20136;-84
2022/05/31 11:54:18;;;;;;;1.85;0.55;;;;;;;;;;5037492;28;20477;-86
2022/05/31 11:57:05;;;;;;;0.63;0.63;;;;;;;;;;5036763;28;20110;-85
2022/05/31 11:59:45;;;;;;;0.77;0.70;;;;;;;;;;5053982;28;20119;-86
2022/05/31 12:02:28;;;;;;;1.10;0.60;;;;;;;;;;5036215;28;20049;-86
2022/05/31 12:05:01;;;;;;;0.43;0.40;;;;;;;;;;5053373;28;20045;-86
2022/05/31 12:07:44;;;;;;;1.65;0.60;;;;;;;;;;5036831;28;20560;-86
2022/05/31 12:10:18;;;;;;;0.80;0.50;;;;;;;;;;5053905;28;20053;-86
2022/05/31 12:12:46;;;;;;;2.55;0.82;;;;;;;;;;5036758;28;20041;-88
2022/05/31 12:15:22;;;;;;;1.45;0.55;;;;;;;;;;5053891;28;20477;-84
2022/05/31 12:18:02;;;;;;;4.75;1.40;;;;;;;;;;5036221;28;20048;-85
2022/05/31 12:20:35;;;;;;;1.60;0.80;;;;;;;;;;5036507;28;20091;-86
2022/05/31 12:23:17;;;;;;;0.50;0.50;;;;;;;;;;5036246;28;20056;-86
2022/05/31 12:25:48;;;;;;;1.23;0.60;;;;;;;;;;5035822;28;20127;-82
2022/05/31 12:28:21;;;;;;;3.38;0.70;;;;;;;;;;5035427;28;20071;-86
2022/05/31 12:30:49;;;;;;;;;;;;;;;;;;5054244;28;20049;-86
2022/05/31 12:33:26;;;;;;;0.63;0.52;;;;;;;;;;5036144;28;20057;-86
2022/05/31 12:35:55;;;;;;;1.88;0.77;;;;;;;;;;5035832;28;20076;-84
2022/05/31 12:38:22;;;;;;;1.75;0.75;;;;;;;;;;5036032;28;20106;-86
2022/05/31 12:40:51;;;;;;;1.70;0.60;;;;;;;;;;5036343;28;20057;-88
2022/05/31 12:43:37;;;;;;;3.63;0.63;;;;;;;;;;5039199;28;20413;-86
2022/05/31 12:46:21;;;;;;;2.78;0.70;;;;;;;;;;5046959;28;20462;-85
2022/05/31 12:48:58;;;;;;;4.28;1.05;;;;;;;;;;5035535;28;20045;-82
2022/05/31 12:51:29;;;;;;;8.55;1.48;;;;;;;;;;5036046;28;20117;-85
2022/05/31 12:53:58;;;;;;;1.50;0.50;;;;;;;;;;5035641;28;20056;-85
2022/05/31 12:56:31;;;;;;;2.05;0.60;;;;;;;;;;5035478;28;20473;-84
2022/05/31 12:59:00;;;;;;;3.83;0.60;;;;;;;;;;5053074;28;20494;-85
2022/05/31 13:01:27;;;;;;;2.20;0.95;;;;;;;;;;5036145;28;20041;-85
2022/05/31 13:03:59;;;;;;;1.25;0.80;;;;;;;;;;5035724;28;20049;-86
2022/05/31 13:06:29;;;;;;;1.00;0.80;;;;;;;;;;5036182;28;20079;-85
2022/05/31 13:09:01;;;;;;;0.80;0.63;;;;;;;;;;5035323;28;20049;-86
2022/05/31 13:20:11;;;;;;;2.40;0.77;;;;;;;;;;5056685;28;20057;-85
2022/05/31 13:22:38;;;;;;;3.25;0.73;;;;;;;;;;5039621;28;20464;-85
2022/05/31 13:25:29;;;;;;;3.17;0.88;;;;;;;;;;5039064;28;20051;-85
2022/05/31 13:27:58;;;;;;;0.75;0.50;;;;;;;;;;5027561;28;20144;-86
2022/05/31 13:30:26;;;;;;;4.90;1.05;;;;;;;;;;5039112;28;20053;-86
2022/05/31 13:32:54;;;;;;;1.23;1.10;;;;;;;;;;5056686;28;20135;-85
2022/05/31 13:35:26;;;;;;;3.13;0.77;;;;;;;;;;5038930;28;20065;-86
2022/05/31 13:38:06;;;;;;;4.95;0.70;;;;;;;;;;5056762;28;20056;-86
2022/05/31 13:40:39;;;;;;;5.63;1.00;;;;;;;;;;5056821;28;20083;-85
2022/05/31 13:43:14;;;;;;;4.97;0.97;;;;;;;;;;5038730;28;20055;-87
2022/05/31 13:45:42;;;;;;;2.50;0.70;;;;;;;;;;5039039;28;20349;-85
2022/05/31 13:48:36;;;;;;;1.20;0.60;;;;;;;;;;5039156;28;20049;-85
2022/05/31 13:51:05;;;;;;;2.97;0.95;;;;;;;;;;5035580;28;20059;-86
2022/05/31 13:53:35;;;;;;;4.85;0.90;;;;;;;;;;5039155;28;20049;-86
2022/05/31 13:56:14;;;;;;;3.83;0.73;;;;;;;;;;5039615;28;20051;-85
2022/05/31 13:58:41;;;;;;;3.83;1.00;;;;;;;;;;5039198;28;20139;-86
2022/05/31 14:01:21;;;;;;;3.10;0.73;;;;;;;;;;5054749;28;20107;-85
2022/05/31 14:03:49;;;;;;;3.67;0.60;;;;;;;;;;5041775;28;20508;-85
2022/05/31 14:06:22;;;;;;;4.50;0.60;;;;;;;;;;5056278;28;20049;-85
2022/05/31 14:08:52;;;;;;;15.60;2.22;;;;;;;;;;5037708;28;20057;-84
2022/05/31 14:11:22;;;;;;;6.60;1.10;;;;;;;;;;5038296;28;20045;-84
2022/05/31 14:13:54;;;;;;;58.88;4.80;;;;;;;;;;5038216;28;20139;-84
2022/05/31 14:16:38;;;;;;;9.63;2.15;;;;;;;;;;5055821;28;20051;-85
2022/05/31 14:19:05;;;;;;;;;;;;;;;;;;5038669;28;20140;-84
2022/05/31 14:21:40;;;;;;;5.80;2.20;;;;;;;;;;5038180;28;19952;-85
2022/05/31 14:24:11;;;;;;;3.38;0.90;;;;;;;;;;5038047;28;20103;-85
2022/05/31 14:26:40;;;;;;;2.17;0.82;;;;;;;;;;5037055;28;20416;-84
2022/05/31 14:29:10;;;;;;;0.98;0.80;;;;;;;;;;5055433;28;20087;-85
2022/05/31 14:31:43;;;;;;;0.95;0.77;;;;;;;;;;5055407;28;20049;-84
2022/05/31 14:34:29;;;;;;;1.95;1.02;;;;;;;;;;5037835;28;20076;-85
2022/05/31 14:36:59;;;;;;;0.80;0.60;;;;;;;;;;5037695;28;20128;-84
2022/05/31 14:39:27;;;;;;;2.30;0.60;;;;;;;;;;5055310;28;20156;-84
2022/05/31 14:41:55;;;;;;;2.97;1.00;;;;;;;;;;5055463;28;20131;-84
2022/05/31 14:44:29;;;;;;;3.25;0.90;;;;;;;;;;5038581;28;20107;-84
2022/05/31 14:47:07;;;;;;;3.25;1.00;;;;;;;;;;5037519;28;20428;-84
2022/05/31 14:49:40;;;;;;;5.70;1.15;;;;;;;;;;5037845;28;20060;-87
2022/05/31 14:52:07;;;;;;;;;;;;;;;;;;5038591;28;20052;-84
2022/05/31 14:54:39;;;;;;;2.42;0.70;;;;;;;;;;5037246;28;20312;-84
2022/05/31 14:57:09;;;;;;;3.22;0.88;;;;;;;;;;5037578;28;20139;-84
2022/05/31 14:59:36;;;;;;;5.90;2.67;;;;;;;;;;5054613;28;20059;-83
2022/05/31 15:02:04;;;;;;;2.55;0.85;;;;;;;;;;5054589;28;20045;-83
2022/05/31 15:04:43;;;;;;;4.93;1.20;;;;;;;;;;5054535;28;20091;-83
2022/05/31 15:07:17;;;;;;;1.65;0.90;;;;;;;;;;5054535;28;20102;-83
2022/05/31 15:10:15;;;;;;;2.03;1.13;;;;;;;;;;5039266;28;20059;-83
2022/05/31 15:21:13;;;;;;;7.03;1.60;;;;;;;;;;5058026;28;20157;-85
2022/05/31 15:23:40;;;;;;;5.50;1.40;;;;;;;;;;5037758;28;20044;-86
2022/05/31 15:26:11;;;;;;;8.18;2.22;;;;;;;;;;5036648;28;20136;-86
2022/05/31 15:28:39;;;;;;;4.60;2.03;;;;;;;;;;5036717;28;20576;-83
2022/05/31 15:31:08;;;;;;;5.35;2.28;;;;;;;;;;5036475;28;20056;-85
2022/05/31 15:33:55;;;;;;;25.83;4.32;;;;;;;;;;5038848;28;20045;-83
2022/05/31 15:36:23;;;;;;;12.60;3.35;;;;;;;;;;5053800;28;20084;-82
2022/05/31 15:38:53;;;;;;;6.88;3.10;;;;;;;;;;5053445;28;20094;-82
2022/05/31 15:41:20;;;;;;;6.00;3.30;;;;;;;;;;5035996;28;20493;-83
2022/05/31 15:43:53;;;;;;;3.63;2.28;;;;;;;;;;5053615;28;20127;-81
2022/05/31 15:46:21;;;;;;;4.05;2.85;;;;;;;;;;5035988;28;20083;-81
2022/05/31 15:48:48;;;;;;;7.05;3.28;;;;;;;;;;5035845;28;20497;-82
2022/05/31 15:51:18;;;;;;;30.10;5.03;;;;;;;;;;5035792;28;20049;-82
2022/05/31 15:53:46;;;;;;;2.33;2.10;;;;;;;;;;5053462;28;20127;-82
2022/05/31 15:56:14;;;;;;;2.50;2.22;;;;;;;;;;5035672;28;20139;-83